createdAt,value
2022-08-30T00:01:25.450Z,9.75
2022-08-30T00:03:54.970Z,8.50
2022-08-30T00:06:24.501Z,10.13
2022-08-30T00:08:53.183Z,8.60
2022-08-30T00:11:24.876Z,10.30
2022-08-30T00:13:54.541Z,10.10
2022-08-30T00:16:23.843Z,10.20
2022-08-30T00:18:51.683Z,9.85
2022-08-30T00:21:20.002Z,8.85
2022-08-30T00:23:47.845Z,9.13
2022-08-30T00:26:15.608Z,9.15
2022-08-30T00:28:44.717Z,10.50
2022-08-30T00:31:15.178Z,8.82
2022-08-30T00:33:43.360Z,8.70
2022-08-30T00:36:11.120Z,10.07
2022-08-30T00:38:38.871Z,10.20
2022-08-30T00:41:06.959Z,9.30
2022-08-30T00:43:36.847Z,9.60
2022-08-30T00:46:08.250Z,9.98
2022-08-30T00:48:40.751Z,9.88
2022-08-30T00:51:11.323Z,8.82
2022-08-30T00:53:43.950Z,10.88
2022-08-30T00:56:14.426Z,9.93
2022-08-30T00:58:46.829Z,9.70
2022-08-30T01:01:17.196Z,8.60
2022-08-30T01:03:45.446Z,9.00
2022-08-30T01:06:15.587Z,9.52
2022-08-30T01:08:44.114Z,10.55
2022-08-30T01:11:13.835Z,10.27
2022-08-30T01:13:42.043Z,10.48
2022-08-30T01:16:10.340Z,9.98
2022-08-30T01:18:39.811Z,10.07
2022-08-30T01:21:17.881Z,9.40
2022-08-30T01:23:50.231Z,9.43
2022-08-30T01:26:19.208Z,8.35
2022-08-30T01:28:54.721Z,9.10
2022-08-30T01:31:23.241Z,8.30
2022-08-30T01:33:52.110Z,9.07
2022-08-30T01:36:20.989Z,8.13
2022-08-30T01:38:53.353Z,9.10
2022-08-30T01:41:24.101Z,8.25
2022-08-30T01:43:54.726Z,8.15
2022-08-30T01:46:24.728Z,8.10
2022-08-30T01:48:54.557Z,8.05
2022-08-30T01:51:25.090Z,8.60
2022-08-30T01:53:54.880Z,8.95
2022-08-30T01:56:23.077Z,8.32
2022-08-30T01:58:51.393Z,8.75
2022-08-30T02:01:21.662Z,8.65
2022-08-30T02:03:49.895Z,8.63
2022-08-30T02:06:20.410Z,8.18
2022-08-30T02:08:48.830Z,8.32
2022-08-30T02:11:19.274Z,7.45
2022-08-30T02:13:47.563Z,8.70
2022-08-30T02:16:18.067Z,7.95
2022-08-30T02:18:47.070Z,8.38
2022-08-30T02:21:15.849Z,8.93
2022-08-30T02:23:44.000Z,8.48
2022-08-30T02:26:12.149Z,7.82
2022-08-30T02:28:42.743Z,8.02
2022-08-30T02:31:19.546Z,8.32
2022-08-30T02:33:50.089Z,7.95
2022-08-30T02:36:17.934Z,8.02
2022-08-30T02:38:46.211Z,8.05
2022-08-30T02:41:14.004Z,8.48
2022-08-30T02:43:43.102Z,8.50
2022-08-30T02:46:11.121Z,8.50
2022-08-30T02:48:39.529Z,7.30
2022-08-30T02:51:11.101Z,8.23
2022-08-30T02:53:40.080Z,8.65
2022-08-30T02:56:08.774Z,8.82
2022-08-30T02:58:36.954Z,7.93
2022-08-30T03:01:07.173Z,8.68
2022-08-30T03:03:34.969Z,7.63
2022-08-30T03:06:03.552Z,9.23
2022-08-30T03:08:32.196Z,8.20
2022-08-30T03:11:00.050Z,7.40
2022-08-30T03:13:27.990Z,8.30
2022-08-30T03:15:55.717Z,8.43
2022-08-30T03:18:26.532Z,8.60
2022-08-30T03:20:55.028Z,7.95
2022-08-30T03:23:23.626Z,7.78
2022-08-30T03:25:51.536Z,8.05
2022-08-30T03:28:19.285Z,7.88
2022-08-30T03:30:48.064Z,7.05
2022-08-30T03:33:16.071Z,7.82
2022-08-30T03:35:48.072Z,7.03
2022-08-30T03:38:15.757Z,7.13
2022-08-30T03:40:43.932Z,7.35
2022-08-30T03:43:11.847Z,7.97
2022-08-30T03:45:40.633Z,7.43
2022-08-30T03:48:08.474Z,7.32
2022-08-30T03:50:36.846Z,7.80
2022-08-30T03:53:06.067Z,7.88
2022-08-30T03:55:34.286Z,7.85
2022-08-30T03:58:02.080Z,7.88
2022-08-30T04:00:29.921Z,7.88
2022-08-30T04:02:57.647Z,7.88
2022-08-30T04:05:25.550Z,7.85
2022-08-30T04:07:53.246Z,6.78
2022-08-30T04:10:22.615Z,8.02
2022-08-30T04:12:50.897Z,7.70
2022-08-30T04:15:19.882Z,8.40
2022-08-30T04:17:47.931Z,7.95
2022-08-30T04:20:16.347Z,8.50
2022-08-30T04:22:44.089Z,9.88
2022-08-30T04:25:15.663Z,8.90
2022-08-30T04:27:45.954Z,8.80
2022-08-30T04:30:15.530Z,8.88
2022-08-30T04:32:43.419Z,9.50
2022-08-30T04:35:12.074Z,8.40
2022-08-30T04:37:40.289Z,8.48
2022-08-30T04:40:09.540Z,8.20
2022-08-30T04:42:37.710Z,8.00
2022-08-30T04:45:10.891Z,8.48
2022-08-30T04:47:39.884Z,8.80
2022-08-30T04:50:08.992Z,7.50
2022-08-30T04:52:36.729Z,10.05
2022-08-30T04:55:05.222Z,9.90
2022-08-30T04:57:33.267Z,8.60
2022-08-30T05:00:00.981Z,8.38
2022-08-30T05:02:30.263Z,8.07
2022-08-30T05:05:15.563Z,7.82
2022-08-30T05:07:43.339Z,7.13
2022-08-30T05:10:11.742Z,7.45
2022-08-30T05:12:39.802Z,7.75
2022-08-30T05:15:08.571Z,8.30
2022-08-30T05:17:37.758Z,7.35
2022-08-30T05:20:06.547Z,9.18
2022-08-30T05:22:36.841Z,7.50
2022-08-30T05:25:05.118Z,7.70
2022-08-30T05:27:33.244Z,6.85
2022-08-30T05:30:06.330Z,7.03
2022-08-30T05:32:34.067Z,7.30
2022-08-30T05:35:03.195Z,7.78
2022-08-30T05:37:30.882Z,9.68
2022-08-30T05:39:59.274Z,6.72
2022-08-30T05:42:27.081Z,8.68
2022-08-30T05:44:55.732Z,9.02
2022-08-30T05:47:23.811Z,7.85
2022-08-30T05:49:51.766Z,7.35
2022-08-30T05:52:21.211Z,7.82
2022-08-30T05:54:54.367Z,8.88
2022-08-30T05:57:22.621Z,7.85
2022-08-30T05:59:50.300Z,8.18
2022-08-30T06:02:18.272Z,7.80
2022-08-30T06:04:46.019Z,7.28
2022-08-30T06:07:15.753Z,7.50
2022-08-30T06:09:46.296Z,7.55
2022-08-30T06:12:13.983Z,8.10
2022-08-30T06:14:41.686Z,7.65
2022-08-30T06:17:09.436Z,7.95
2022-08-30T06:19:37.411Z,6.30
2022-08-30T06:22:05.337Z,7.18
2022-08-30T06:24:55.840Z,7.00
2022-08-30T06:27:22.151Z,7.70
2022-08-30T06:29:52.272Z,6.68
2022-08-30T06:32:20.004Z,7.43
2022-08-30T06:34:48.286Z,6.65
2022-08-30T06:37:29.129Z,7.68
2022-08-30T06:39:58.023Z,6.65
2022-08-30T06:42:31.920Z,6.43
2022-08-30T06:45:00.311Z,8.07
2022-08-30T06:47:29.111Z,7.03
2022-08-30T06:49:57.899Z,6.45
2022-08-30T06:52:26.405Z,6.68
2022-08-30T06:54:55.319Z,7.63
2022-08-30T06:57:22.998Z,6.50
2022-08-30T06:59:57.318Z,6.20
2022-08-30T07:02:26.120Z,6.57
2022-08-30T07:04:53.933Z,7.47
2022-08-30T07:07:21.693Z,6.82
2022-08-30T07:09:49.386Z,7.22
2022-08-30T07:12:17.389Z,7.85
2022-08-30T07:14:45.153Z,7.03
2022-08-30T07:17:34.709Z,8.55
2022-08-30T07:20:03.211Z,6.70
2022-08-30T07:22:30.988Z,6.72
2022-08-30T07:24:58.741Z,9.45
2022-08-30T07:27:26.467Z,7.82
2022-08-30T07:29:54.172Z,7.40
2022-08-30T07:32:23.251Z,6.35
2022-08-30T07:34:51.749Z,7.25
2022-08-30T07:37:19.707Z,6.45
2022-08-30T07:39:48.164Z,7.40
2022-08-30T07:42:16.165Z,7.45
2022-08-30T07:44:43.963Z,7.25
2022-08-30T07:47:12.239Z,7.57
2022-08-30T07:49:41.296Z,8.00
2022-08-30T07:52:09.014Z,9.70
2022-08-30T07:54:36.875Z,8.55
2022-08-30T07:57:04.646Z,7.30
2022-08-30T07:59:35.580Z,8.48
2022-08-30T08:02:04.148Z,7.47
2022-08-30T08:04:33.169Z,7.05
2022-08-30T08:07:02.287Z,8.23
2022-08-30T08:09:30.035Z,6.88
2022-08-30T08:11:57.759Z,7.43
2022-08-30T08:14:25.466Z,7.07
2022-08-30T08:16:53.596Z,6.60
2022-08-30T08:19:21.262Z,7.60
2022-08-30T08:21:55.702Z,6.70
2022-08-30T08:24:38.262Z,7.15
2022-08-30T08:27:06.317Z,7.32
2022-08-30T08:29:34.163Z,7.30
2022-08-30T08:32:01.877Z,7.50
2022-08-30T08:34:29.616Z,7.65
2022-08-30T08:36:57.518Z,7.18
2022-08-30T08:39:25.227Z,6.85
2022-08-30T08:42:05.007Z,7.13
2022-08-30T08:44:45.073Z,8.00
2022-08-30T08:47:16.413Z,6.75
2022-08-30T08:49:47.474Z,7.53
2022-08-30T08:52:38.214Z,6.82
2022-08-30T08:55:10.785Z,7.03
2022-08-30T08:57:40.191Z,7.13
2022-08-30T09:00:10.148Z,6.70
2022-08-30T09:02:42.661Z,6.75
2022-08-30T09:05:14.579Z,7.05
2022-08-30T09:07:48.080Z,7.05
2022-08-30T09:10:18.346Z,6.90
2022-08-30T09:12:55.719Z,7.25
2022-08-30T09:15:29.685Z,7.75
2022-08-30T09:18:01.362Z,6.85
2022-08-30T09:20:34.058Z,7.63
2022-08-30T09:23:22.585Z,6.93
2022-08-30T09:25:54.762Z,7.47
2022-08-30T09:28:27.008Z,7.28
2022-08-30T09:31:11.890Z,6.90
2022-08-30T09:33:40.179Z,7.97
2022-08-30T09:36:15.739Z,6.10
2022-08-30T09:38:43.464Z,7.07
2022-08-30T09:41:38.005Z,6.38
2022-08-30T09:44:10.806Z,6.25
2022-08-30T09:46:47.184Z,7.35
2022-08-30T09:49:37.800Z,7.78
2022-08-30T09:52:26.253Z,6.25
2022-08-30T09:55:10.822Z,7.32
2022-08-30T09:57:45.996Z,7.38
2022-08-30T10:00:19.567Z,7.25
2022-08-30T10:03:09.166Z,7.63
2022-08-30T10:05:47.511Z,6.97
2022-08-30T10:08:25.104Z,6.35
2022-08-30T10:10:56.046Z,6.25
2022-08-30T10:13:44.193Z,6.22
2022-08-30T10:16:22.744Z,6.10
2022-08-30T10:19:04.194Z,6.63
2022-08-30T10:21:38.165Z,6.70
2022-08-30T10:24:11.365Z,6.38
2022-08-30T10:26:44.527Z,6.70
2022-08-30T10:29:17.426Z,6.35
2022-08-30T10:31:52.343Z,6.63
2022-08-30T10:34:26.680Z,6.75
2022-08-30T10:36:59.202Z,6.28
2022-08-30T10:39:32.919Z,6.07
2022-08-30T10:42:06.375Z,5.88
2022-08-30T10:44:41.337Z,6.13
2022-08-30T10:47:23.841Z,5.60
2022-08-30T10:49:57.198Z,5.85
2022-08-30T10:52:34.189Z,5.90
2022-08-30T10:55:08.494Z,5.22
2022-08-30T10:57:38.502Z,5.60
2022-08-30T11:00:13.907Z,5.20
2022-08-30T11:03:25.144Z,5.38
2022-08-30T11:06:17.210Z,5.80
2022-08-30T11:09:09.741Z,5.50
2022-08-30T11:11:56.727Z,6.18
2022-08-30T11:14:25.925Z,5.88
2022-08-30T11:16:56.444Z,6.25
2022-08-30T11:19:32.188Z,5.90
2022-08-30T11:22:14.110Z,5.90
2022-08-30T11:25:11.377Z,6.15
2022-08-30T11:27:51.796Z,5.30
2022-08-30T11:31:04.401Z,5.65
2022-08-30T11:33:46.126Z,6.05
2022-08-30T11:37:09.725Z,5.35
2022-08-30T11:40:14.177Z,6.15
2022-08-30T11:42:48.008Z,5.90
2022-08-30T11:45:45.046Z,8.30
2022-08-30T11:48:53.491Z,5.50
2022-08-30T11:52:23.715Z,6.13
2022-08-30T11:54:55.739Z,6.53
2022-08-30T11:57:32.234Z,5.88
2022-08-30T12:00:08.795Z,6.15
2022-08-30T12:02:46.773Z,5.95
2022-08-30T12:05:51.319Z,6.15
2022-08-30T12:08:58.003Z,6.50
2022-08-30T12:11:55.027Z,6.50
2022-08-30T12:14:54.469Z,6.95
2022-08-30T12:17:48.166Z,6.47
2022-08-30T12:20:22.438Z,7.05
2022-08-30T12:22:51.161Z,6.65
2022-08-30T12:25:26.350Z,6.72
2022-08-30T12:28:14.109Z,6.28
2022-08-30T12:30:46.465Z,6.15
2022-08-30T12:33:28.993Z,6.30
2022-08-30T12:35:59.301Z,6.63
2022-08-30T12:38:28.352Z,6.88
2022-08-30T12:41:00.197Z,6.63
2022-08-30T12:43:40.259Z,6.57
2022-08-30T12:46:12.793Z,6.30
2022-08-30T12:48:44.757Z,6.22
2022-08-30T12:51:34.874Z,6.32
2022-08-30T12:54:10.270Z,6.05
2022-08-30T12:56:56.830Z,6.50
2022-08-30T12:59:54.141Z,6.25
2022-08-30T13:02:27.259Z,6.60
2022-08-30T13:04:57.254Z,6.10
2022-08-30T13:07:31.078Z,6.30
2022-08-30T13:10:05.048Z,6.22
2022-08-30T13:12:34.962Z,5.72
2022-08-30T13:15:17.635Z,6.07
2022-08-30T13:17:47.694Z,6.57
2022-08-30T13:20:25.862Z,7.22
2022-08-30T13:23:06.794Z,6.68
2022-08-30T13:25:35.458Z,6.65
2022-08-30T13:28:05.407Z,6.03
2022-08-30T13:30:33.888Z,6.32
2022-08-30T13:33:03.406Z,5.68
2022-08-30T13:35:32.646Z,6.35
2022-08-30T13:38:04.121Z,5.95
2022-08-30T13:40:31.942Z,5.88
2022-08-30T13:42:59.676Z,5.80
2022-08-30T13:45:43.190Z,6.00
2022-08-30T13:48:15.282Z,6.55
2022-08-30T13:50:45.388Z,5.97
2022-08-30T13:53:13.274Z,6.40
2022-08-30T13:55:42.537Z,5.80
2022-08-30T13:58:13.273Z,5.75
2022-08-30T14:00:41.683Z,5.45
2022-08-30T14:03:09.404Z,5.95
2022-08-30T14:05:49.533Z,5.85
2022-08-30T14:11:09.283Z,5.50
2022-08-30T14:13:37.445Z,5.53
2022-08-30T14:18:56.938Z,5.40
2022-08-30T14:21:26.544Z,4.97
2022-08-30T14:23:55.938Z,5.20
2022-08-30T14:26:33.196Z,4.97
2022-08-30T14:29:02.468Z,4.90
2022-08-30T14:31:32.745Z,5.22
2022-08-30T14:34:01.871Z,4.82
2022-08-30T14:36:33.190Z,5.18
2022-08-30T14:39:01.674Z,5.38
2022-08-30T14:41:29.517Z,5.45
2022-08-30T14:43:57.261Z,5.18
2022-08-30T14:46:26.723Z,5.75
2022-08-30T14:48:55.229Z,4.75
2022-08-30T14:51:24.503Z,5.10
2022-08-30T14:53:54.606Z,5.25
2022-08-30T14:58:59.748Z,5.43
2022-08-30T15:01:27.201Z,5.00
2022-08-30T15:03:53.598Z,5.18
2022-08-30T15:06:22.281Z,4.90
2022-08-30T15:08:48.682Z,5.13
2022-08-30T15:11:18.654Z,4.88
2022-08-30T15:13:45.918Z,4.55
2022-08-30T15:16:16.103Z,4.60
2022-08-30T15:23:45.504Z,4.68
2022-08-30T15:26:11.855Z,4.95
2022-08-30T15:28:38.678Z,5.70
2022-08-30T15:31:08.970Z,4.63
2022-08-30T15:33:36.362Z,5.30
2022-08-30T15:36:06.278Z,5.20
2022-08-30T15:38:33.097Z,4.45
2022-08-30T15:41:03.468Z,4.38
2022-08-30T15:48:28.571Z,5.32
2022-08-30T15:50:56.795Z,5.07
2022-08-30T15:53:23.385Z,4.88
2022-08-30T15:55:49.937Z,5.18
2022-08-30T15:58:17.266Z,5.10
2022-08-30T16:00:45.137Z,5.22
2022-08-30T16:03:11.769Z,4.95
2022-08-30T16:05:39.096Z,5.10
2022-08-30T16:13:09.449Z,5.30
2022-08-30T16:15:38.507Z,5.07
2022-08-30T16:18:05.507Z,7.63
2022-08-30T16:20:31.967Z,5.85
2022-08-30T16:22:58.256Z,5.25
2022-08-30T16:25:24.847Z,5.03
2022-08-30T16:28:06.167Z,4.85
2022-08-30T16:30:37.028Z,5.22
2022-08-30T16:38:02.100Z,5.93
2022-08-30T16:40:29.183Z,4.90
2022-08-30T16:42:55.705Z,5.43
2022-08-30T16:45:22.425Z,5.35
2022-08-30T16:47:50.369Z,4.85
2022-08-30T16:50:20.783Z,4.75
2022-08-30T16:52:47.324Z,5.80
2022-08-30T16:55:14.701Z,5.72
2022-08-30T17:02:53.532Z,5.10
2022-08-30T17:05:20.771Z,4.90
2022-08-30T17:07:47.417Z,5.28
2022-08-30T17:10:14.375Z,5.25
2022-08-30T17:12:41.884Z,5.43
2022-08-30T17:15:13.693Z,5.10
2022-08-30T17:17:43.335Z,5.57
2022-08-30T17:26:41.917Z,6.18
2022-08-30T17:29:08.465Z,6.82
2022-08-30T17:31:35.232Z,7.97
2022-08-30T17:34:05.020Z,6.25
2022-08-30T17:36:31.614Z,5.35
2022-08-30T17:38:58.855Z,5.35
2022-08-30T17:41:25.537Z,6.82
2022-08-30T17:49:00.952Z,5.95
2022-08-30T17:51:28.680Z,5.30
2022-08-30T17:53:55.046Z,5.70
2022-08-30T17:56:21.690Z,5.47
2022-08-30T17:58:49.697Z,5.43
2022-08-30T18:01:17.736Z,5.10
2022-08-30T18:03:45.573Z,5.75
2022-08-30T18:12:33.957Z,5.63
2022-08-30T18:15:00.824Z,5.53
2022-08-30T18:17:27.689Z,5.97
2022-08-30T18:19:54.045Z,5.30
2022-08-30T18:22:24.542Z,6.05
2022-08-30T18:24:51.088Z,6.03
2022-08-30T18:27:17.735Z,5.45
2022-08-30T18:30:03.968Z,5.63
2022-08-30T18:32:35.286Z,5.82
2022-08-30T18:35:06.759Z,4.93
2022-08-30T18:37:37.444Z,5.90
2022-08-30T18:40:06.506Z,5.85
2022-08-30T18:42:37.893Z,5.82
2022-08-30T18:45:14.498Z,6.53
2022-08-30T18:47:43.628Z,6.93
2022-08-30T18:50:12.485Z,5.75
2022-08-30T18:52:40.478Z,6.18
2022-08-30T18:55:09.223Z,6.07
2022-08-30T18:57:37.166Z,5.93
2022-08-30T19:00:09.612Z,5.32
2022-08-30T19:02:37.707Z,5.78
2022-08-30T19:05:07.032Z,6.00
2022-08-30T19:07:37.486Z,6.13
2022-08-30T19:10:07.258Z,5.90
2022-08-30T19:12:40.710Z,6.80
2022-08-30T19:15:11.766Z,6.88
2022-08-30T19:17:40.399Z,9.52
2022-08-30T19:20:10.074Z,7.30
2022-08-30T19:23:08.554Z,6.05
2022-08-30T19:25:26.934Z,6.68
2022-08-30T19:27:56.965Z,5.57
2022-08-30T19:30:29.915Z,6.00
2022-08-30T19:32:58.221Z,5.60
2022-08-30T19:35:26.108Z,6.60
2022-08-30T19:37:53.949Z,6.32
2022-08-30T19:40:23.059Z,6.18
2022-08-30T19:42:51.507Z,5.78
2022-08-30T19:45:21.750Z,6.50
2022-08-30T19:47:53.336Z,5.93
2022-08-30T19:50:22.496Z,6.95
2022-08-30T19:52:54.237Z,8.05
2022-08-30T19:55:30.284Z,9.68
2022-08-30T19:57:59.646Z,7.55
2022-08-30T20:00:30.668Z,6.38
2022-08-30T20:03:01.944Z,7.93
2022-08-30T20:05:30.280Z,6.40
2022-08-30T20:07:58.246Z,6.72
2022-08-30T20:10:26.528Z,6.90
2022-08-30T20:12:54.438Z,7.28
2022-08-30T20:15:22.489Z,7.25
2022-08-30T20:18:13.575Z,7.45
2022-08-30T20:20:39.776Z,7.03
2022-08-30T20:23:07.526Z,7.28
2022-08-30T20:24:23.738Z,6.60
2022-08-30T20:25:35.999Z,6.95
2022-08-30T20:28:04.437Z,7.10
2022-08-30T20:30:33.278Z,7.07
2022-08-30T20:33:06.903Z,7.78
2022-08-30T20:35:36.394Z,7.95
2022-08-30T20:38:06.523Z,7.03
2022-08-30T20:40:36.001Z,6.57
2022-08-30T20:43:04.232Z,6.55
2022-08-30T20:45:34.191Z,6.82
2022-08-30T20:48:03.111Z,7.10
2022-08-30T20:50:31.149Z,7.28
2022-08-30T20:52:58.884Z,8.60
2022-08-30T20:55:28.114Z,7.93
2022-08-30T20:57:55.630Z,6.90
2022-08-30T21:00:24.717Z,7.03
2022-08-30T21:02:54.620Z,8.30
2022-08-30T21:05:22.433Z,8.40
2022-08-30T21:07:50.135Z,7.57
2022-08-30T21:10:23.096Z,6.68
2022-08-30T21:12:52.803Z,6.78
2022-08-30T21:15:36.711Z,7.30
2022-08-30T21:18:05.929Z,7.45
2022-08-30T21:20:33.818Z,6.45
2022-08-30T21:23:01.483Z,6.97
2022-08-30T21:25:30.959Z,7.70
2022-08-30T21:28:00.354Z,7.88
2022-08-30T21:30:28.094Z,7.20
2022-08-30T21:32:59.803Z,7.20
2022-08-30T21:35:45.978Z,6.78
2022-08-30T21:38:14.247Z,7.55
2022-08-30T21:40:42.094Z,7.20
2022-08-30T21:43:11.289Z,7.63
2022-08-30T21:45:39.427Z,7.82
2022-08-30T21:48:07.887Z,7.30
2022-08-30T21:50:35.987Z,8.13
2022-08-30T21:53:05.748Z,7.43
2022-08-30T21:55:33.419Z,7.78
2022-08-30T21:58:01.194Z,8.25
2022-08-30T22:00:33.572Z,7.60
2022-08-30T22:03:01.832Z,7.93
2022-08-30T22:05:29.612Z,8.10
2022-08-30T22:07:57.266Z,8.18
2022-08-30T22:10:25.279Z,9.13
2022-08-30T22:12:53.000Z,8.30
2022-08-30T22:15:20.826Z,8.82
2022-08-30T22:17:49.931Z,8.00
2022-08-30T22:20:18.645Z,7.65
2022-08-30T22:22:46.712Z,7.80
2022-08-30T22:25:14.667Z,6.88
2022-08-30T22:27:42.363Z,8.02
2022-08-30T22:30:11.130Z,7.45
2022-08-30T22:32:38.870Z,8.02
2022-08-30T22:35:09.222Z,8.38
2022-08-30T22:37:36.940Z,8.02
2022-08-30T22:40:05.751Z,7.82
2022-08-30T22:47:34.818Z,7.47
2022-08-30T22:50:01.091Z,8.00
2022-08-30T22:52:27.395Z,9.02
2022-08-30T22:54:53.783Z,8.10
2022-08-30T22:57:23.132Z,8.32
2022-08-30T22:59:51.138Z,8.23
2022-08-30T23:02:17.556Z,8.60
2022-08-30T23:04:45.037Z,8.85
2022-08-30T23:12:15.338Z,8.82
2022-08-30T23:14:41.677Z,9.57
2022-08-30T23:17:08.065Z,8.27
2022-08-30T23:19:34.325Z,8.23
2022-08-30T23:22:01.110Z,8.65
2022-08-30T23:24:46.308Z,8.90
2022-08-30T23:27:34.749Z,8.43
2022-08-30T23:30:19.501Z,9.18
2022-08-30T23:38:25.945Z,8.93
2022-08-30T23:41:10.187Z,9.18
2022-08-30T23:43:55.210Z,8.13
2022-08-30T23:46:40.586Z,8.80
2022-08-30T23:49:24.951Z,8.48
2022-08-30T23:52:09.257Z,8.63
2022-08-30T23:54:57.162Z,9.20
